sensor_id;sensor_type;location;lat;lon;timestamp;temperature;humidity
13251;DHT22;6692;50.710;7.180;2023-04-24T00:00:52;12.90;99.90
13251;DHT22;6692;50.710;7.180;2023-04-24T00:02:53;12.90;99.90
13251;DHT22;6692;50.710;7.180;2023-04-24T00:04:54;12.90;99.90
13251;DHT22;6692;50.710;7.180;2023-04-24T00:06:54;13.00;99.90
13251;DHT22;6692;50.710;7.180;2023-04-24T00:08:55;12.90;99.90
13251;DHT22;6692;50.710;7.180;2023-04-24T00:10:56;12.90;99.90
13251;DHT22;6692;50.710;7.180;2023-04-24T00:12:56;12.90;99.90
13251;DHT22;6692;50.710;7.180;2023-04-24T00:14:58;12.90;99.90
13251;DHT22;6692;50.710;7.180;2023-04-24T00:16:58;12.90;99.90
13251;DHT22;6692;50.710;7.180;2023-04-24T00:18:59;12.90;99.90
13251;DHT22;6692;50.710;7.180;2023-04-24T00:21:00;12.90;99.90
13251;DHT22;6692;50.710;7.180;2023-04-24T00:23:00;12.90;99.90
13251;DHT22;6692;50.710;7.180;2023-04-24T00:25:01;12.90;99.90
13251;DHT22;6692;50.710;7.180;2023-04-24T00:27:02;12.90;99.90
13251;DHT22;6692;50.710;7.180;2023-04-24T00:29:02;12.90;99.90
13251;DHT22;6692;50.710;7.180;2023-04-24T00:31:03;12.90;99.90
13251;DHT22;6692;50.710;7.180;2023-04-24T00:33:04;12.90;99.90
13251;DHT22;6692;50.710;7.180;2023-04-24T00:35:05;12.90;99.90
13251;DHT22;6692;50.710;7.180;2023-04-24T00:37:06;12.90;99.90
13251;DHT22;6692;50.710;7.180;2023-04-24T00:39:07;12.90;99.90
13251;DHT22;6692;50.710;7.180;2023-04-24T00:41:09;12.90;99.90
13251;DHT22;6692;50.710;7.180;2023-04-24T00:43:10;12.90;99.90
13251;DHT22;6692;50.710;7.180;2023-04-24T00:45:11;12.90;99.90
13251;DHT22;6692;50.710;7.180;2023-04-24T00:47:11;12.90;99.90
13251;DHT22;6692;50.710;7.180;2023-04-24T00:49:13;12.90;99.90
13251;DHT22;6692;50.710;7.180;2023-04-24T00:51:13;12.90;99.90
13251;DHT22;6692;50.710;7.180;2023-04-24T00:53:13;12.90;99.90
13251;DHT22;6692;50.710;7.180;2023-04-24T00:55:14;12.90;99.90
13251;DHT22;6692;50.710;7.180;2023-04-24T00:57:15;12.90;99.90
13251;DHT22;6692;50.710;7.180;2023-04-24T00:59:16;13.00;99.90
13251;DHT22;6692;50.710;7.180;2023-04-24T01:01:16;13.00;99.90
13251;DHT22;6692;50.710;7.180;2023-04-24T01:03:17;13.00;99.90
13251;DHT22;6692;50.710;7.180;2023-04-24T01:05:17;13.00;99.90
13251;DHT22;6692;50.710;7.180;2023-04-24T01:07:19;13.00;99.90
13251;DHT22;6692;50.710;7.180;2023-04-24T01:09:20;12.90;99.90
13251;DHT22;6692;50.710;7.180;2023-04-24T01:11:21;12.90;99.90
13251;DHT22;6692;50.710;7.180;2023-04-24T01:13:23;13.00;99.90
13251;DHT22;6692;50.710;7.180;2023-04-24T01:15:23;12.90;99.90
13251;DHT22;6692;50.710;7.180;2023-04-24T01:17:24;13.00;99.90
13251;DHT22;6692;50.710;7.180;2023-04-24T01:19:24;13.00;99.90
13251;DHT22;6692;50.710;7.180;2023-04-24T01:21:26;13.00;99.90
13251;DHT22;6692;50.710;7.180;2023-04-24T01:23:27;12.90;99.90
13251;DHT22;6692;50.710;7.180;2023-04-24T01:25:27;12.90;99.90
13251;DHT22;6692;50.710;7.180;2023-04-24T01:27:28;12.90;99.90
13251;DHT22;6692;50.710;7.180;2023-04-24T01:29:28;12.90;99.90
13251;DHT22;6692;50.710;7.180;2023-04-24T01:31:29;12.90;99.90
13251;DHT22;6692;50.710;7.180;2023-04-24T01:33:31;12.90;99.90
13251;DHT22;6692;50.710;7.180;2023-04-24T01:35:32;12.80;99.90
13251;DHT22;6692;50.710;7.180;2023-04-24T01:37:33;12.70;99.90
13251;DHT22;6692;50.710;7.180;2023-04-24T01:39:34;12.70;99.90
13251;DHT22;6692;50.710;7.180;2023-04-24T01:41:35;12.60;99.90
13251;DHT22;6692;50.710;7.180;2023-04-24T01:43:35;12.50;99.90
13251;DHT22;6692;50.710;7.180;2023-04-24T01:45:36;12.40;99.90
13251;DHT22;6692;50.710;7.180;2023-04-24T01:47:37;12.30;99.90
13251;DHT22;6692;50.710;7.180;2023-04-24T01:49:38;12.20;99.90
13251;DHT22;6692;50.710;7.180;2023-04-24T01:51:38;12.20;99.90
13251;DHT22;6692;50.710;7.180;2023-04-24T01:53:39;12.10;99.90
13251;DHT22;6692;50.710;7.180;2023-04-24T01:55:40;12.10;99.90
13251;DHT22;6692;50.710;7.180;2023-04-24T01:57:41;12.00;99.90
13251;DHT22;6692;50.710;7.180;2023-04-24T01:59:42;12.00;99.90
13251;DHT22;6692;50.710;7.180;2023-04-24T02:01:43;12.00;99.90
13251;DHT22;6692;50.710;7.180;2023-04-24T02:03:43;12.00;99.90
13251;DHT22;6692;50.710;7.180;2023-04-24T02:05:44;12.00;99.90
13251;DHT22;6692;50.710;7.180;2023-04-24T02:07:45;12.00;99.90
13251;DHT22;6692;50.710;7.180;2023-04-24T02:09:45;11.90;99.90
13251;DHT22;6692;50.710;7.180;2023-04-24T02:11:46;11.90;99.90
13251;DHT22;6692;50.710;7.180;2023-04-24T02:13:47;11.90;99.90
13251;DHT22;6692;50.710;7.180;2023-04-24T02:15:47;11.80;99.90
13251;DHT22;6692;50.710;7.180;2023-04-24T02:17:48;11.80;99.90
13251;DHT22;6692;50.710;7.180;2023-04-24T02:19:48;11.80;99.90
13251;DHT22;6692;50.710;7.180;2023-04-24T02:21:49;11.70;99.90
13251;DHT22;6692;50.710;7.180;2023-04-24T02:23:50;11.70;99.90
13251;DHT22;6692;50.710;7.180;2023-04-24T02:25:50;11.70;99.90
13251;DHT22;6692;50.710;7.180;2023-04-24T02:27:51;11.60;99.90
13251;DHT22;6692;50.710;7.180;2023-04-24T02:29:52;11.60;99.90
13251;DHT22;6692;50.710;7.180;2023-04-24T02:31:52;11.60;99.90
13251;DHT22;6692;50.710;7.180;2023-04-24T02:33:53;11.60;99.90
13251;DHT22;6692;50.710;7.180;2023-04-24T02:35:54;11.50;99.90
13251;DHT22;6692;50.710;7.180;2023-04-24T02:37:54;11.50;99.90
13251;DHT22;6692;50.710;7.180;2023-04-24T02:39:55;11.40;99.90
13251;DHT22;6692;50.710;7.180;2023-04-24T02:41:56;11.40;99.90
13251;DHT22;6692;50.710;7.180;2023-04-24T02:43:58;11.30;99.90
13251;DHT22;6692;50.710;7.180;2023-04-24T02:45:59;11.20;99.90
13251;DHT22;6692;50.710;7.180;2023-04-24T02:47:59;11.20;99.90
13251;DHT22;6692;50.710;7.180;2023-04-24T02:50:01;11.10;99.90
13251;DHT22;6692;50.710;7.180;2023-04-24T02:52:01;11.10;99.90
13251;DHT22;6692;50.710;7.180;2023-04-24T02:54:02;11.10;99.90
13251;DHT22;6692;50.710;7.180;2023-04-24T02:56:03;11.00;99.90
13251;DHT22;6692;50.710;7.180;2023-04-24T02:58:04;11.00;99.90
13251;DHT22;6692;50.710;7.180;2023-04-24T03:00:06;10.90;99.90
13251;DHT22;6692;50.710;7.180;2023-04-24T03:02:07;10.90;99.90
13251;DHT22;6692;50.710;7.180;2023-04-24T03:04:07;10.80;99.90
13251;DHT22;6692;50.710;7.180;2023-04-24T03:06:08;10.80;99.90
13251;DHT22;6692;50.710;7.180;2023-04-24T03:08:09;10.80;99.90
13251;DHT22;6692;50.710;7.180;2023-04-24T03:10:09;10.70;99.90
13251;DHT22;6692;50.710;7.180;2023-04-24T03:12:11;10.70;99.90
13251;DHT22;6692;50.710;7.180;2023-04-24T03:14:11;10.60;99.90
13251;DHT22;6692;50.710;7.180;2023-04-24T03:16:12;10.60;99.90
13251;DHT22;6692;50.710;7.180;2023-04-24T03:18:13;10.60;99.90
13251;DHT22;6692;50.710;7.180;2023-04-24T03:20:14;10.60;99.90
13251;DHT22;6692;50.710;7.180;2023-04-24T03:22:15;10.60;99.90
13251;DHT22;6692;50.710;7.180;2023-04-24T03:24:16;10.50;99.90
13251;DHT22;6692;50.710;7.180;2023-04-24T03:26:17;10.60;99.90
13251;DHT22;6692;50.710;7.180;2023-04-24T03:28:18;10.50;99.90
13251;DHT22;6692;50.710;7.180;2023-04-24T03:30:19;10.50;99.90
13251;DHT22;6692;50.710;7.180;2023-04-24T03:32:19;10.50;99.90
13251;DHT22;6692;50.710;7.180;2023-04-24T03:34:20;10.50;99.90
13251;DHT22;6692;50.710;7.180;2023-04-24T03:36:21;10.50;99.90
13251;DHT22;6692;50.710;7.180;2023-04-24T03:38:21;10.50;99.90
13251;DHT22;6692;50.710;7.180;2023-04-24T03:40:22;10.50;99.90
13251;DHT22;6692;50.710;7.180;2023-04-24T03:42:23;10.50;99.90
13251;DHT22;6692;50.710;7.180;2023-04-24T03:44:24;10.50;99.90
13251;DHT22;6692;50.710;7.180;2023-04-24T03:46:24;10.40;99.90
13251;DHT22;6692;50.710;7.180;2023-04-24T03:48:25;10.40;99.90
13251;DHT22;6692;50.710;7.180;2023-04-24T03:50:26;10.30;99.90
13251;DHT22;6692;50.710;7.180;2023-04-24T03:52:27;10.30;99.90
13251;DHT22;6692;50.710;7.180;2023-04-24T03:54:28;10.30;99.90
13251;DHT22;6692;50.710;7.180;2023-04-24T03:56:28;10.20;99.90
13251;DHT22;6692;50.710;7.180;2023-04-24T03:58:30;10.20;99.90
13251;DHT22;6692;50.710;7.180;2023-04-24T04:00:30;10.10;99.90
13251;DHT22;6692;50.710;7.180;2023-04-24T04:02:31;10.10;99.90
13251;DHT22;6692;50.710;7.180;2023-04-24T04:04:32;10.10;99.90
13251;DHT22;6692;50.710;7.180;2023-04-24T04:06:33;10.10;99.90
13251;DHT22;6692;50.710;7.180;2023-04-24T04:08:34;10.10;99.90
13251;DHT22;6692;50.710;7.180;2023-04-24T04:10:34;10.10;99.90
13251;DHT22;6692;50.710;7.180;2023-04-24T04:12:35;10.10;99.90
13251;DHT22;6692;50.710;7.180;2023-04-24T04:14:36;10.00;99.90
13251;DHT22;6692;50.710;7.180;2023-04-24T04:16:36;10.00;99.90
13251;DHT22;6692;50.710;7.180;2023-04-24T04:18:37;10.00;99.90
13251;DHT22;6692;50.710;7.180;2023-04-24T04:20:38;10.00;99.90
13251;DHT22;6692;50.710;7.180;2023-04-24T04:22:39;10.00;99.90
13251;DHT22;6692;50.710;7.180;2023-04-24T04:24:40;10.00;99.90
13251;DHT22;6692;50.710;7.180;2023-04-24T04:26:41;10.10;99.90
13251;DHT22;6692;50.710;7.180;2023-04-24T04:28:42;10.10;99.90
13251;DHT22;6692;50.710;7.180;2023-04-24T04:30:42;10.10;99.90
13251;DHT22;6692;50.710;7.180;2023-04-24T04:32:44;10.10;99.90
13251;DHT22;6692;50.710;7.180;2023-04-24T04:34:44;10.00;99.90
13251;DHT22;6692;50.710;7.180;2023-04-24T04:36:46;10.10;99.90
13251;DHT22;6692;50.710;7.180;2023-04-24T04:38:47;10.10;99.90
13251;DHT22;6692;50.710;7.180;2023-04-24T04:40:48;10.10;99.90
13251;DHT22;6692;50.710;7.180;2023-04-24T04:42:48;10.10;99.90
13251;DHT22;6692;50.710;7.180;2023-04-24T04:44:49;10.20;99.90
13251;DHT22;6692;50.710;7.180;2023-04-24T04:46:49;10.30;99.90
13251;DHT22;6692;50.710;7.180;2023-04-24T04:48:50;10.30;99.90
13251;DHT22;6692;50.710;7.180;2023-04-24T04:50:51;10.40;99.90
13251;DHT22;6692;50.710;7.180;2023-04-24T04:52:51;10.40;99.90
13251;DHT22;6692;50.710;7.180;2023-04-24T04:54:52;10.50;99.90
13251;DHT22;6692;50.710;7.180;2023-04-24T04:56:52;10.50;99.90
13251;DHT22;6692;50.710;7.180;2023-04-24T04:58:53;10.60;99.90
13251;DHT22;6692;50.710;7.180;2023-04-24T05:00:54;10.60;99.90
13251;DHT22;6692;50.710;7.180;2023-04-24T05:02:54;10.70;99.90
13251;DHT22;6692;50.710;7.180;2023-04-24T05:04:55;10.70;99.90
13251;DHT22;6692;50.710;7.180;2023-04-24T05:06:56;10.80;99.90
13251;DHT22;6692;50.710;7.180;2023-04-24T05:08:56;10.80;99.90
13251;DHT22;6692;50.710;7.180;2023-04-24T05:10:57;10.90;99.90
13251;DHT22;6692;50.710;7.180;2023-04-24T05:12:59;11.00;99.90
13251;DHT22;6692;50.710;7.180;2023-04-24T05:14:59;10.90;99.90
13251;DHT22;6692;50.710;7.180;2023-04-24T05:17:00;11.00;99.90
13251;DHT22;6692;50.710;7.180;2023-04-24T05:19:02;11.10;99.90
13251;DHT22;6692;50.710;7.180;2023-04-24T05:21:02;11.00;99.90
13251;DHT22;6692;50.710;7.180;2023-04-24T05:23:03;11.10;99.90
13251;DHT22;6692;50.710;7.180;2023-04-24T05:25:04;11.10;99.90
13251;DHT22;6692;50.710;7.180;2023-04-24T05:27:05;11.10;99.90
13251;DHT22;6692;50.710;7.180;2023-04-24T05:29:06;11.10;99.90
13251;DHT22;6692;50.710;7.180;2023-04-24T05:31:06;11.10;99.90
13251;DHT22;6692;50.710;7.180;2023-04-24T05:33:07;11.10;99.90
13251;DHT22;6692;50.710;7.180;2023-04-24T05:35:08;11.10;99.90
13251;DHT22;6692;50.710;7.180;2023-04-24T05:37:08;11.10;99.90
13251;DHT22;6692;50.710;7.180;2023-04-24T05:39:09;11.10;99.90
13251;DHT22;6692;50.710;7.180;2023-04-24T05:41:10;11.20;99.90
13251;DHT22;6692;50.710;7.180;2023-04-24T05:43:11;11.20;99.90
13251;DHT22;6692;50.710;7.180;2023-04-24T05:45:12;11.30;99.90
13251;DHT22;6692;50.710;7.180;2023-04-24T05:47:13;11.30;99.90
13251;DHT22;6692;50.710;7.180;2023-04-24T05:49:14;11.40;99.90
13251;DHT22;6692;50.710;7.180;2023-04-24T05:51:15;11.40;99.90
13251;DHT22;6692;50.710;7.180;2023-04-24T05:53:16;11.40;99.90
13251;DHT22;6692;50.710;7.180;2023-04-24T05:55:17;11.40;99.90
13251;DHT22;6692;50.710;7.180;2023-04-24T05:57:18;11.40;99.90
13251;DHT22;6692;50.710;7.180;2023-04-24T05:59:19;11.40;99.90
13251;DHT22;6692;50.710;7.180;2023-04-24T06:01:19;11.40;99.90
13251;DHT22;6692;50.710;7.180;2023-04-24T06:03:20;11.40;99.90
13251;DHT22;6692;50.710;7.180;2023-04-24T06:05:21;11.40;99.90
13251;DHT22;6692;50.710;7.180;2023-04-24T06:07:21;11.40;99.90
13251;DHT22;6692;50.710;7.180;2023-04-24T06:09:22;11.40;99.90
13251;DHT22;6692;50.710;7.180;2023-04-24T06:11:23;11.40;99.90
13251;DHT22;6692;50.710;7.180;2023-04-24T06:13:23;11.30;99.90
13251;DHT22;6692;50.710;7.180;2023-04-24T06:15:26;11.30;99.90
13251;DHT22;6692;50.710;7.180;2023-04-24T06:17:26;11.30;99.90
13251;DHT22;6692;50.710;7.180;2023-04-24T06:19:26;11.30;99.90
13251;DHT22;6692;50.710;7.180;2023-04-24T06:21:27;11.30;99.90
13251;DHT22;6692;50.710;7.180;2023-04-24T06:23:27;11.20;99.90
13251;DHT22;6692;50.710;7.180;2023-04-24T06:25:28;11.20;99.90
13251;DHT22;6692;50.710;7.180;2023-04-24T06:27:29;11.20;99.90
13251;DHT22;6692;50.710;7.180;2023-04-24T06:29:29;11.20;99.90
13251;DHT22;6692;50.710;7.180;2023-04-24T06:31:30;11.20;99.90
13251;DHT22;6692;50.710;7.180;2023-04-24T06:33:31;11.20;99.90
13251;DHT22;6692;50.710;7.180;2023-04-24T06:35:31;11.30;99.90
13251;DHT22;6692;50.710;7.180;2023-04-24T06:37:32;11.30;99.90
13251;DHT22;6692;50.710;7.180;2023-04-24T06:39:33;11.30;99.90
13251;DHT22;6692;50.710;7.180;2023-04-24T06:41:33;11.30;99.90
13251;DHT22;6692;50.710;7.180;2023-04-24T06:43:34;11.20;99.90
13251;DHT22;6692;50.710;7.180;2023-04-24T06:45:35;11.20;99.90
13251;DHT22;6692;50.710;7.180;2023-04-24T06:47:35;11.10;99.90
13251;DHT22;6692;50.710;7.180;2023-04-24T06:49:37;11.00;99.90
13251;DHT22;6692;50.710;7.180;2023-04-24T06:51:38;11.00;99.90
13251;DHT22;6692;50.710;7.180;2023-04-24T06:53:38;10.90;99.90
13251;DHT22;6692;50.710;7.180;2023-04-24T06:55:39;10.90;99.90
13251;DHT22;6692;50.710;7.180;2023-04-24T06:57:40;10.80;99.90
13251;DHT22;6692;50.710;7.180;2023-04-24T06:59:40;10.70;99.90
13251;DHT22;6692;50.710;7.180;2023-04-24T07:01:41;10.70;99.90
13251;DHT22;6692;50.710;7.180;2023-04-24T07:03:42;10.70;99.90
13251;DHT22;6692;50.710;7.180;2023-04-24T07:05:42;10.60;99.90
13251;DHT22;6692;50.710;7.180;2023-04-24T07:07:43;10.60;99.90
13251;DHT22;6692;50.710;7.180;2023-04-24T07:09:44;10.50;99.90
13251;DHT22;6692;50.710;7.180;2023-04-24T07:11:45;10.40;99.90
13251;DHT22;6692;50.710;7.180;2023-04-24T07:13:45;10.30;99.90
13251;DHT22;6692;50.710;7.180;2023-04-24T07:15:47;10.20;99.90
13251;DHT22;6692;50.710;7.180;2023-04-24T07:17:48;10.20;99.90
13251;DHT22;6692;50.710;7.180;2023-04-24T07:19:49;10.20;99.90
13251;DHT22;6692;50.710;7.180;2023-04-24T07:21:50;10.20;99.90
13251;DHT22;6692;50.710;7.180;2023-04-24T07:23:51;10.10;99.90
13251;DHT22;6692;50.710;7.180;2023-04-24T07:25:51;10.10;99.90
13251;DHT22;6692;50.710;7.180;2023-04-24T07:27:52;10.10;99.90
13251;DHT22;6692;50.710;7.180;2023-04-24T07:29:53;10.00;99.90
13251;DHT22;6692;50.710;7.180;2023-04-24T07:31:53;10.00;99.90
13251;DHT22;6692;50.710;7.180;2023-04-24T07:33:54;10.10;99.90
13251;DHT22;6692;50.710;7.180;2023-04-24T07:35:54;10.10;99.90
13251;DHT22;6692;50.710;7.180;2023-04-24T07:37:55;10.10;99.90
13251;DHT22;6692;50.710;7.180;2023-04-24T07:39:56;10.00;99.90
13251;DHT22;6692;50.710;7.180;2023-04-24T07:41:57;10.00;99.90
13251;DHT22;6692;50.710;7.180;2023-04-24T07:43:58;10.00;99.90
13251;DHT22;6692;50.710;7.180;2023-04-24T07:45:59;9.90;99.90
13251;DHT22;6692;50.710;7.180;2023-04-24T07:48:00;10.00;99.90
13251;DHT22;6692;50.710;7.180;2023-04-24T07:50:00;9.90;99.90
13251;DHT22;6692;50.710;7.180;2023-04-24T07:52:01;9.90;99.90
13251;DHT22;6692;50.710;7.180;2023-04-24T07:54:02;9.80;99.90
13251;DHT22;6692;50.710;7.180;2023-04-24T07:56:02;9.80;99.90
13251;DHT22;6692;50.710;7.180;2023-04-24T07:58:03;9.80;99.90
13251;DHT22;6692;50.710;7.180;2023-04-24T08:00:05;9.80;99.90
13251;DHT22;6692;50.710;7.180;2023-04-24T08:02:06;9.70;99.90
13251;DHT22;6692;50.710;7.180;2023-04-24T08:04:07;9.70;99.90
13251;DHT22;6692;50.710;7.180;2023-04-24T08:06:08;9.70;99.90
13251;DHT22;6692;50.710;7.180;2023-04-24T08:08:08;9.70;99.90
13251;DHT22;6692;50.710;7.180;2023-04-24T08:10:10;9.70;99.90
13251;DHT22;6692;50.710;7.180;2023-04-24T08:12:10;9.60;99.90
13251;DHT22;6692;50.710;7.180;2023-04-24T08:14:10;9.50;99.90
13251;DHT22;6692;50.710;7.180;2023-04-24T08:16:11;9.50;99.90
13251;DHT22;6692;50.710;7.180;2023-04-24T08:18:12;9.40;99.90
13251;DHT22;6692;50.710;7.180;2023-04-24T08:20:12;9.40;99.90
13251;DHT22;6692;50.710;7.180;2023-04-24T08:22:15;9.40;99.90
13251;DHT22;6692;50.710;7.180;2023-04-24T08:24:15;9.40;99.90
13251;DHT22;6692;50.710;7.180;2023-04-24T08:26:16;9.50;99.90
13251;DHT22;6692;50.710;7.180;2023-04-24T08:28:17;9.40;99.90
13251;DHT22;6692;50.710;7.180;2023-04-24T08:30:17;9.40;99.90
13251;DHT22;6692;50.710;7.180;2023-04-24T08:32:18;9.30;99.90
13251;DHT22;6692;50.710;7.180;2023-04-24T08:34:19;9.30;99.90
13251;DHT22;6692;50.710;7.180;2023-04-24T08:36:20;9.30;99.90
13251;DHT22;6692;50.710;7.180;2023-04-24T08:38:21;9.30;99.90
13251;DHT22;6692;50.710;7.180;2023-04-24T08:40:27;9.30;99.90
13251;DHT22;6692;50.710;7.180;2023-04-24T08:42:22;9.20;99.90
13251;DHT22;6692;50.710;7.180;2023-04-24T08:44:23;9.20;99.90
13251;DHT22;6692;50.710;7.180;2023-04-24T08:46:24;9.20;99.90
13251;DHT22;6692;50.710;7.180;2023-04-24T08:48:24;9.20;99.90
13251;DHT22;6692;50.710;7.180;2023-04-24T08:50:25;9.10;99.90
13251;DHT22;6692;50.710;7.180;2023-04-24T08:52:25;9.00;99.90
13251;DHT22;6692;50.710;7.180;2023-04-24T08:54:27;8.80;99.90
13251;DHT22;6692;50.710;7.180;2023-04-24T08:56:27;8.80;99.90
13251;DHT22;6692;50.710;7.180;2023-04-24T08:58:28;8.80;99.90
13251;DHT22;6692;50.710;7.180;2023-04-24T09:00:29;8.60;99.90
13251;DHT22;6692;50.710;7.180;2023-04-24T09:02:30;8.50;99.90
13251;DHT22;6692;50.710;7.180;2023-04-24T09:04:31;8.50;99.90
13251;DHT22;6692;50.710;7.180;2023-04-24T09:06:32;8.40;99.90
13251;DHT22;6692;50.710;7.180;2023-04-24T09:08:33;8.40;99.90
13251;DHT22;6692;50.710;7.180;2023-04-24T09:10:34;8.40;99.90
13251;DHT22;6692;50.710;7.180;2023-04-24T09:12:35;8.40;99.90
13251;DHT22;6692;50.710;7.180;2023-04-24T09:14:36;8.40;99.90
13251;DHT22;6692;50.710;7.180;2023-04-24T09:16:37;8.60;99.90
13251;DHT22;6692;50.710;7.180;2023-04-24T09:18:38;8.60;99.90
13251;DHT22;6692;50.710;7.180;2023-04-24T09:22:54;8.70;99.90
13251;DHT22;6692;50.710;7.180;2023-04-24T09:25:00;8.70;99.90
13251;DHT22;6692;50.710;7.180;2023-04-24T09:27:01;8.80;99.90
13251;DHT22;6692;50.710;7.180;2023-04-24T09:29:02;8.80;99.90
13251;DHT22;6692;50.710;7.180;2023-04-24T09:31:05;8.90;99.90
13251;DHT22;6692;50.710;7.180;2023-04-24T09:33:10;8.90;99.90
13251;DHT22;6692;50.710;7.180;2023-04-24T09:35:12;8.90;99.90
13251;DHT22;6692;50.710;7.180;2023-04-24T09:37:15;9.00;99.90
13251;DHT22;6692;50.710;7.180;2023-04-24T09:39:13;9.00;99.90
13251;DHT22;6692;50.710;7.180;2023-04-24T09:41:13;9.10;99.90
13251;DHT22;6692;50.710;7.180;2023-04-24T09:43:14;9.10;99.90
13251;DHT22;6692;50.710;7.180;2023-04-24T09:45:15;9.20;99.90
13251;DHT22;6692;50.710;7.180;2023-04-24T09:47:16;9.20;99.90
13251;DHT22;6692;50.710;7.180;2023-04-24T09:49:21;9.20;99.90
13251;DHT22;6692;50.710;7.180;2023-04-24T09:51:17;9.30;99.90
13251;DHT22;6692;50.710;7.180;2023-04-24T09:53:21;9.30;99.90
13251;DHT22;6692;50.710;7.180;2023-04-24T09:55:20;9.30;99.90
13251;DHT22;6692;50.710;7.180;2023-04-24T09:57:20;9.20;99.90
13251;DHT22;6692;50.710;7.180;2023-04-24T09:59:22;9.10;99.90
13251;DHT22;6692;50.710;7.180;2023-04-24T10:01:29;9.10;99.90
13251;DHT22;6692;50.710;7.180;2023-04-24T10:03:29;9.10;99.90
13251;DHT22;6692;50.710;7.180;2023-04-24T10:05:31;8.90;99.90
13251;DHT22;6692;50.710;7.180;2023-04-24T10:07:32;8.90;99.90
13251;DHT22;6692;50.710;7.180;2023-04-24T10:09:32;8.90;99.90
13251;DHT22;6692;50.710;7.180;2023-04-24T10:11:32;8.90;99.90
13251;DHT22;6692;50.710;7.180;2023-04-24T10:13:33;8.90;99.90
13251;DHT22;6692;50.710;7.180;2023-04-24T10:15:34;8.90;99.90
13251;DHT22;6692;50.710;7.180;2023-04-24T10:17:35;8.90;99.90
13251;DHT22;6692;50.710;7.180;2023-04-24T10:19:37;8.90;99.90
13251;DHT22;6692;50.710;7.180;2023-04-24T10:21:38;9.00;99.90
13251;DHT22;6692;50.710;7.180;2023-04-24T10:23:38;9.10;99.90
13251;DHT22;6692;50.710;7.180;2023-04-24T10:25:40;9.10;99.90
13251;DHT22;6692;50.710;7.180;2023-04-24T10:27:40;9.20;99.90
13251;DHT22;6692;50.710;7.180;2023-04-24T10:29:43;9.20;99.90
13251;DHT22;6692;50.710;7.180;2023-04-24T10:31:42;9.20;99.90
13251;DHT22;6692;50.710;7.180;2023-04-24T10:33:43;9.20;99.90
13251;DHT22;6692;50.710;7.180;2023-04-24T10:35:45;9.30;99.90
13251;DHT22;6692;50.710;7.180;2023-04-24T10:37:46;9.30;99.90
13251;DHT22;6692;50.710;7.180;2023-04-24T10:39:48;9.40;99.90
13251;DHT22;6692;50.710;7.180;2023-04-24T10:41:48;9.40;99.90
13251;DHT22;6692;50.710;7.180;2023-04-24T10:46:04;9.50;99.90
13251;DHT22;6692;50.710;7.180;2023-04-24T10:48:05;9.50;99.90
13251;DHT22;6692;50.710;7.180;2023-04-24T10:50:08;9.50;99.90
13251;DHT22;6692;50.710;7.180;2023-04-24T10:52:08;9.50;99.90
13251;DHT22;6692;50.710;7.180;2023-04-24T10:56:21;9.40;99.90
13251;DHT22;6692;50.710;7.180;2023-04-24T10:58:23;9.40;99.90
13251;DHT22;6692;50.710;7.180;2023-04-24T11:00:24;9.30;99.90
13251;DHT22;6692;50.710;7.180;2023-04-24T11:02:35;9.30;99.90
13251;DHT22;6692;50.710;7.180;2023-04-24T11:04:28;9.40;99.90
13251;DHT22;6692;50.710;7.180;2023-04-24T11:06:32;9.50;99.90
13251;DHT22;6692;50.710;7.180;2023-04-24T11:08:42;9.50;99.90
13251;DHT22;6692;50.710;7.180;2023-04-24T11:10:41;9.50;99.90
13251;DHT22;6692;50.710;7.180;2023-04-24T11:12:40;9.40;99.90
13251;DHT22;6692;50.710;7.180;2023-04-24T11:14:59;9.60;99.90
13251;DHT22;6692;50.710;7.180;2023-04-24T11:16:54;9.50;99.90
13251;DHT22;6692;50.710;7.180;2023-04-24T11:19:35;9.80;99.90
13251;DHT22;6692;50.710;7.180;2023-04-24T11:21:18;10.10;99.90
13251;DHT22;6692;50.710;7.180;2023-04-24T11:23:19;10.50;99.90
13251;DHT22;6692;50.710;7.180;2023-04-24T11:25:20;10.70;99.90
13251;DHT22;6692;50.710;7.180;2023-04-24T11:27:21;10.90;99.90
13251;DHT22;6692;50.710;7.180;2023-04-24T11:29:21;11.10;99.90
13251;DHT22;6692;50.710;7.180;2023-04-24T11:31:38;11.00;99.90
13251;DHT22;6692;50.710;7.180;2023-04-24T11:33:38;11.00;99.90
13251;DHT22;6692;50.710;7.180;2023-04-24T11:35:39;10.90;99.90
13251;DHT22;6692;50.710;7.180;2023-04-24T11:37:41;10.60;99.90
13251;DHT22;6692;50.710;7.180;2023-04-24T11:39:41;10.60;99.90
13251;DHT22;6692;50.710;7.180;2023-04-24T11:41:42;10.50;99.90
13251;DHT22;6692;50.710;7.180;2023-04-24T11:43:42;10.40;99.90
13251;DHT22;6692;50.710;7.180;2023-04-24T11:45:47;10.50;99.90
13251;DHT22;6692;50.710;7.180;2023-04-24T11:47:44;10.60;99.90
13251;DHT22;6692;50.710;7.180;2023-04-24T11:49:44;10.80;99.90
13251;DHT22;6692;50.710;7.180;2023-04-24T11:51:45;10.90;99.90
13251;DHT22;6692;50.710;7.180;2023-04-24T11:53:46;11.00;99.90
13251;DHT22;6692;50.710;7.180;2023-04-24T11:55:46;11.00;99.90
13251;DHT22;6692;50.710;7.180;2023-04-24T11:57:50;11.10;99.90
13251;DHT22;6692;50.710;7.180;2023-04-24T11:59:49;11.10;99.90
13251;DHT22;6692;50.710;7.180;2023-04-24T12:01:50;10.90;99.90
13251;DHT22;6692;50.710;7.180;2023-04-24T12:03:51;10.80;99.90
13251;DHT22;6692;50.710;7.180;2023-04-24T12:05:52;10.70;99.90
13251;DHT22;6692;50.710;7.180;2023-04-24T12:07:53;10.70;99.90
13251;DHT22;6692;50.710;7.180;2023-04-24T12:09:56;10.60;99.90
13251;DHT22;6692;50.710;7.180;2023-04-24T12:11:56;10.70;99.90
13251;DHT22;6692;50.710;7.180;2023-04-24T12:13:56;10.70;99.90
13251;DHT22;6692;50.710;7.180;2023-04-24T12:15:57;10.80;99.90
13251;DHT22;6692;50.710;7.180;2023-04-24T12:17:57;10.90;99.90
13251;DHT22;6692;50.710;7.180;2023-04-24T12:20:03;11.00;99.90
13251;DHT22;6692;50.710;7.180;2023-04-24T12:22:03;11.00;99.90
13251;DHT22;6692;50.710;7.180;2023-04-24T12:24:05;11.00;99.90
13251;DHT22;6692;50.710;7.180;2023-04-24T12:26:04;11.00;99.90
13251;DHT22;6692;50.710;7.180;2023-04-24T12:28:11;10.90;99.90
13251;DHT22;6692;50.710;7.180;2023-04-24T12:30:13;10.90;99.90
13251;DHT22;6692;50.710;7.180;2023-04-24T12:32:16;10.80;99.90
13251;DHT22;6692;50.710;7.180;2023-04-24T12:34:18;10.80;99.90
13251;DHT22;6692;50.710;7.180;2023-04-24T12:36:20;10.80;99.90
13251;DHT22;6692;50.710;7.180;2023-04-24T12:38:22;10.90;99.90
13251;DHT22;6692;50.710;7.180;2023-04-24T12:40:22;11.10;99.90
13251;DHT22;6692;50.710;7.180;2023-04-24T12:42:28;11.40;99.90
13251;DHT22;6692;50.710;7.180;2023-04-24T12:44:32;11.60;99.90
13251;DHT22;6692;50.710;7.180;2023-04-24T12:46:32;11.90;99.90
13251;DHT22;6692;50.710;7.180;2023-04-24T12:48:33;12.00;99.90
13251;DHT22;6692;50.710;7.180;2023-04-24T12:50:34;12.00;99.90
13251;DHT22;6692;50.710;7.180;2023-04-24T12:52:34;12.10;99.90
13251;DHT22;6692;50.710;7.180;2023-04-24T12:54:35;12.20;99.90
13251;DHT22;6692;50.710;7.180;2023-04-24T12:56:36;12.30;99.90
13251;DHT22;6692;50.710;7.180;2023-04-24T12:58:36;12.50;99.90
13251;DHT22;6692;50.710;7.180;2023-04-24T13:00:38;12.70;99.90
13251;DHT22;6692;50.710;7.180;2023-04-24T13:02:38;12.80;99.90
13251;DHT22;6692;50.710;7.180;2023-04-24T13:04:38;12.90;99.90
13251;DHT22;6692;50.710;7.180;2023-04-24T13:06:39;13.20;99.90